SAWG/RGL METAR and TAF weather

Enter ICAO airport designator
Station Type Date Time Source
SAWG METAR 2020/02/19 14:00 UTC NOAA

SAWG 191400Z 23035G50KT 9999 SCT030 SCT100 12/M03 Q1007


Station Type Date Time Source
SAWG Decoded METAR 2020/02/19 14:00 UTC NOAA

Rio Gallegos Aerodrome, Argentina (SAWG) 51-37S 069-17W 19M
Feb 19, 2020 - 09:00 AM EST / 2020.02.19 1400 UTC
Wind: from the SW (230 degrees) at 40 MPH (35 KT) gusting to 58 MPH (50 KT):1
Visibility: greater than 7 mile(s):0
Sky conditions: partly cloudy
Temperature: 53 F (12 C)
Dew Point: 26 F (-3 C)
Relative Humidity: 34%
Pressure (altimeter): 29.74 in. Hg (1007 hPa)
ob: SAWG 191400Z 23035G50KT 9999 SCT030 SCT100 12/M03 Q1007
cycle: 14

Station Type Date Time Source
SAWG TAF 2020/02/19 12:03 UTC NOAA

TAF SAWG 191100Z 1912/2012 25025G35KT CAVOK TX14/1919Z TN05/1910Z
BECMG 1913/1915 20030G45KT 9999 -RADZ BKN020
BECMG 1920/1922 20025G35KT CAVOK
BECMG 2004/2006 20015KT

Example: see airport list